createdAt,value
2023-02-09T00:01:21.295Z,97188.63
2023-02-09T00:03:48.865Z,97189.44
2023-02-09T00:06:18.304Z,97187.31
2023-02-09T00:08:45.586Z,97173.97
2023-02-09T00:11:21.741Z,97182.63
2023-02-09T00:13:48.581Z,97175.50
2023-02-09T00:16:16.395Z,97181.50
2023-02-09T00:18:43.138Z,97177.59
2023-02-09T00:21:11.284Z,97176.84
2023-02-09T00:23:41.053Z,97175.25
2023-02-09T00:26:10.695Z,97180.75
2023-02-09T00:28:39.108Z,97176.22
2023-02-09T00:31:11.320Z,97171.28
2023-02-09T00:33:40.723Z,97175.81
2023-02-09T00:36:10.818Z,97165.66
2023-02-09T00:38:37.713Z,97157.22
2023-02-09T00:41:05.263Z,97171.13
2023-02-09T00:43:32.270Z,97170.44
2023-02-09T00:45:59.824Z,97168.56
2023-02-09T00:48:27.161Z,97151.41
2023-02-09T00:50:54.206Z,97140.47
2023-02-09T00:53:21.818Z,97137.78
2023-02-09T00:55:49.437Z,97126.03
2023-02-09T00:58:16.317Z,97152.09
2023-02-09T01:00:43.572Z,97146.53
2023-02-09T01:03:11.361Z,97148.91
2023-02-09T01:05:42.937Z,97120.19
2023-02-09T01:08:11.760Z,97147.63
2023-02-09T01:10:39.680Z,97143.00
2023-02-09T01:13:06.534Z,97124.31
2023-02-09T01:15:33.378Z,97132.97
2023-02-09T01:18:00.363Z,97141.16
2023-02-09T01:20:27.725Z,97130.81
2023-02-09T01:22:54.617Z,97125.44
2023-02-09T01:25:21.488Z,97130.06
2023-02-09T01:27:48.748Z,97124.34
2023-02-09T01:30:15.707Z,97131.41
2023-02-09T01:32:45.960Z,97111.59
2023-02-09T01:35:12.848Z,97131.13
2023-02-09T01:37:39.866Z,97135.72
2023-02-09T01:40:08.136Z,97130.81
2023-02-09T01:42:39.050Z,97130.53
2023-02-09T01:45:31.948Z,97133.94
2023-02-09T01:48:14.081Z,97137.78
2023-02-09T01:50:45.844Z,97126.97
2023-02-09T01:53:13.253Z,97130.97
2023-02-09T01:55:46.661Z,97119.19
2023-02-09T01:58:17.843Z,97125.56
2023-02-09T02:00:46.312Z,97113.28
2023-02-09T02:03:18.637Z,97128.34
2023-02-09T02:05:49.002Z,97121.66
2023-02-09T02:08:26.556Z,97122.69
2023-02-09T02:10:54.399Z,97103.94
2023-02-09T02:13:21.393Z,97106.78
2023-02-09T02:16:11.101Z,97113.81
2023-02-09T02:18:53.230Z,97110.41
2023-02-09T02:21:37.678Z,97111.31
2023-02-09T02:24:28.261Z,97120.50
2023-02-09T02:26:58.745Z,97110.25
2023-02-09T02:29:35.533Z,97117.56
2023-02-09T02:32:24.343Z,97118.56
2023-02-09T02:34:55.911Z,97105.81
2023-02-09T02:37:37.374Z,97117.75
2023-02-09T02:40:12.409Z,97088.16
2023-02-09T02:43:23.582Z,97109.16
2023-02-09T02:46:05.405Z,97104.34
2023-02-09T02:48:41.349Z,97086.91
2023-02-09T02:51:36.578Z,97090.47
2023-02-09T02:54:09.497Z,97070.97
2023-02-09T02:56:41.725Z,97078.59
2023-02-09T02:59:14.210Z,97080.25
2023-02-09T03:01:46.362Z,97076.88
2023-02-09T03:04:15.437Z,97077.94
2023-02-09T03:06:42.165Z,97089.47
2023-02-09T03:09:09.151Z,97074.28
2023-02-09T03:11:49.330Z,97070.50
2023-02-09T03:14:35.276Z,97082.53
2023-02-09T03:17:30.918Z,97068.50
2023-02-09T03:20:13.231Z,97075.50
2023-02-09T03:22:48.170Z,97082.28
2023-02-09T03:25:34.972Z,97073.88
2023-02-09T03:28:14.310Z,97075.06
2023-02-09T03:30:42.536Z,97070.88
2023-02-09T03:33:24.467Z,97065.78
2023-02-09T03:35:55.612Z,97066.41
2023-02-09T03:38:23.068Z,97051.94
2023-02-09T03:40:50.053Z,97076.50
2023-02-09T03:43:16.869Z,97070.44
2023-02-09T03:45:43.632Z,97073.94
2023-02-09T03:48:11.329Z,97072.13
2023-02-09T03:50:38.565Z,97064.09
2023-02-09T03:53:06.568Z,97072.94
2023-02-09T03:55:34.343Z,97064.34
2023-02-09T03:58:01.077Z,97069.19
2023-02-09T04:00:28.306Z,97034.47
2023-02-09T04:02:55.077Z,97046.00
2023-02-09T04:05:23.046Z,97074.63
2023-02-09T04:07:49.972Z,97076.69
2023-02-09T04:10:16.806Z,97080.94
2023-02-09T04:12:43.537Z,97058.94
2023-02-09T04:15:11.405Z,97078.66
2023-02-09T04:17:38.258Z,97066.69
2023-02-09T04:20:05.632Z,97072.13
2023-02-09T04:22:32.357Z,97057.78
2023-02-09T04:24:59.009Z,97068.16
2023-02-09T04:27:27.196Z,97068.22
2023-02-09T04:29:54.094Z,97070.66
2023-02-09T04:32:20.939Z,97072.31
2023-02-09T04:34:47.644Z,97044.38
2023-02-09T04:37:14.463Z,97060.03
2023-02-09T04:39:41.278Z,97062.41
2023-02-09T04:42:08.190Z,97078.06
2023-02-09T04:44:34.918Z,97084.41
2023-02-09T04:47:01.720Z,97073.63
2023-02-09T04:49:28.441Z,97072.91
2023-02-09T04:51:55.286Z,97063.88
2023-02-09T04:54:22.015Z,97077.00
2023-02-09T04:57:08.898Z,97071.91
2023-02-09T04:59:39.233Z,97070.31
2023-02-09T05:02:06.043Z,97077.38
2023-02-09T05:04:32.891Z,97068.56
2023-02-09T05:06:59.810Z,97072.97
2023-02-09T05:09:27.650Z,97070.13
2023-02-09T05:11:54.491Z,97070.50
2023-02-09T05:14:21.328Z,97062.06
2023-02-09T05:16:48.284Z,97079.94
2023-02-09T05:19:15.053Z,97081.38
2023-02-09T05:21:41.699Z,97067.09
2023-02-09T05:24:08.496Z,97075.81
2023-02-09T05:26:35.548Z,97056.81
2023-02-09T05:29:02.729Z,97071.81
2023-02-09T05:31:29.631Z,97077.03
2023-02-09T05:33:56.437Z,97071.72
2023-02-09T05:36:25.256Z,97065.97
2023-02-09T05:38:51.998Z,97081.75
2023-02-09T05:41:37.193Z,97078.38
2023-02-09T05:44:04.394Z,97080.25
2023-02-09T05:46:31.580Z,97087.22
2023-02-09T05:48:58.491Z,97081.34
2023-02-09T05:51:26.315Z,97100.94
2023-02-09T05:53:54.316Z,97090.41
2023-02-09T05:56:22.647Z,97085.78
2023-02-09T05:59:08.122Z,97081.16
2023-02-09T06:01:34.901Z,97083.38
2023-02-09T06:04:01.744Z,97092.63
2023-02-09T06:06:28.868Z,97095.81
2023-02-09T06:08:55.787Z,97093.16
2023-02-09T06:11:22.618Z,97085.09
2023-02-09T06:13:49.701Z,97062.41
2023-02-09T06:16:16.476Z,97061.44
2023-02-09T06:18:43.285Z,97070.13
2023-02-09T06:21:11.684Z,97076.22
2023-02-09T06:23:39.384Z,97072.88
2023-02-09T06:26:13.473Z,97081.69
2023-02-09T06:28:40.553Z,97082.97
2023-02-09T06:31:07.974Z,97082.22
2023-02-09T06:33:36.415Z,97083.69
2023-02-09T06:36:04.527Z,97072.31
2023-02-09T06:38:32.718Z,97072.22
2023-02-09T06:40:59.413Z,97053.13
2023-02-09T06:43:26.614Z,97077.25
2023-02-09T06:45:53.749Z,97050.03
2023-02-09T06:48:20.784Z,97064.44
2023-02-09T06:50:48.196Z,97036.94
2023-02-09T06:53:17.226Z,97041.53
2023-02-09T06:55:44.036Z,97043.69
2023-02-09T06:58:10.792Z,97048.03
2023-02-09T07:00:37.513Z,97045.84
2023-02-09T07:03:04.487Z,97048.84
2023-02-09T07:05:31.653Z,97044.66
2023-02-09T07:07:58.526Z,97054.00
2023-02-09T07:10:25.308Z,97030.97
2023-02-09T07:12:52.255Z,97044.78
2023-02-09T07:15:19.203Z,97042.88
2023-02-09T07:17:46.089Z,97037.63
2023-02-09T07:20:13.139Z,97054.69
2023-02-09T07:22:40.960Z,97048.13
2023-02-09T07:25:08.201Z,97047.69
2023-02-09T07:27:35.067Z,97039.25
2023-02-09T07:30:02.056Z,97042.72
2023-02-09T07:32:28.771Z,97034.03
2023-02-09T07:34:55.483Z,97012.22
2023-02-09T07:37:22.247Z,97031.16
2023-02-09T07:39:49.396Z,97023.34
2023-02-09T07:42:16.297Z,97042.88
2023-02-09T07:44:57.803Z,97041.13
2023-02-09T07:47:24.719Z,97033.81
2023-02-09T07:49:51.458Z,97034.56
2023-02-09T07:52:18.306Z,97021.56
2023-02-09T07:54:45.030Z,97015.63
2023-02-09T07:57:13.470Z,97012.09
2023-02-09T07:59:40.251Z,97027.53
2023-02-09T08:02:16.976Z,97025.94
2023-02-09T08:04:44.753Z,97016.94
2023-02-09T08:07:11.511Z,97024.72
2023-02-09T08:09:38.374Z,97014.84
2023-02-09T08:12:06.076Z,97022.19
2023-02-09T08:14:42.943Z,96999.72
2023-02-09T08:17:23.249Z,97019.38
2023-02-09T08:20:03.286Z,97027.91
2023-02-09T08:22:33.783Z,97017.59
2023-02-09T08:25:03.072Z,97024.41
2023-02-09T08:27:31.273Z,97030.28
2023-02-09T08:29:58.841Z,97030.53
2023-02-09T08:32:25.728Z,97024.22
2023-02-09T08:34:52.560Z,97008.53
2023-02-09T08:37:19.450Z,97023.22
2023-02-09T08:39:46.185Z,96993.81
2023-02-09T08:42:13.082Z,97009.41
2023-02-09T08:44:39.853Z,97017.00
2023-02-09T08:47:06.678Z,96999.63
2023-02-09T08:49:33.386Z,97001.53
2023-02-09T08:52:00.157Z,97016.19
2023-02-09T08:54:27.130Z,97005.66
2023-02-09T08:56:53.856Z,97009.38
2023-02-09T08:59:22.014Z,97025.59
2023-02-09T09:01:48.694Z,97017.38
2023-02-09T09:04:15.512Z,97020.75
2023-02-09T09:06:42.244Z,97019.84
2023-02-09T09:09:09.218Z,97018.69
2023-02-09T09:11:36.734Z,97012.97
2023-02-09T09:14:03.464Z,97013.44
2023-02-09T09:16:30.616Z,97012.97
2023-02-09T09:18:57.448Z,97032.38
2023-02-09T09:21:24.557Z,97030.88
2023-02-09T09:23:51.300Z,97026.31
2023-02-09T09:26:18.374Z,97023.38
2023-02-09T09:28:45.558Z,96999.94
2023-02-09T09:31:16.485Z,97022.91
2023-02-09T09:33:44.550Z,97006.84
2023-02-09T09:36:12.281Z,97003.19
2023-02-09T09:38:39.675Z,96997.78
2023-02-09T09:41:18.914Z,97007.88
2023-02-09T09:43:45.834Z,97002.47
2023-02-09T09:46:19.053Z,96980.81
2023-02-09T09:48:49.463Z,97005.03
2023-02-09T09:51:28.953Z,96988.25
2023-02-09T09:53:59.413Z,96980.28
2023-02-09T09:56:29.382Z,96990.81
2023-02-09T09:58:57.029Z,96984.66
2023-02-09T10:01:26.289Z,96987.44
2023-02-09T10:03:53.354Z,96974.78
2023-02-09T10:06:22.600Z,96992.78
2023-02-09T10:08:59.734Z,96982.00
2023-02-09T10:11:36.633Z,96977.59
2023-02-09T10:14:03.449Z,96970.38
2023-02-09T10:16:34.624Z,96966.34
2023-02-09T10:19:05.148Z,96964.31
2023-02-09T10:21:35.907Z,96964.34
2023-02-09T10:24:10.180Z,96978.09
2023-02-09T10:26:40.082Z,96971.63
2023-02-09T10:29:12.992Z,96966.75
2023-02-09T10:31:47.077Z,96959.91
2023-02-09T10:34:18.128Z,96950.88
2023-02-09T10:36:50.235Z,96947.41
2023-02-09T10:39:25.568Z,96944.97
2023-02-09T10:41:54.570Z,96941.22
2023-02-09T10:44:27.327Z,96950.00
2023-02-09T10:47:23.554Z,96949.75
2023-02-09T10:50:05.687Z,96935.94
2023-02-09T10:52:36.749Z,96939.06
2023-02-09T10:55:16.990Z,96930.34
2023-02-09T10:57:43.902Z,96933.66
2023-02-09T11:00:16.718Z,96935.19
2023-02-09T11:02:51.716Z,96925.72
2023-02-09T11:05:21.446Z,96926.69
2023-02-09T11:08:10.346Z,96927.34
2023-02-09T11:10:43.162Z,96916.56
2023-02-09T11:13:23.101Z,96912.91
2023-02-09T11:16:11.873Z,96923.50
2023-02-09T11:18:41.599Z,96907.91
2023-02-09T11:21:27.474Z,96906.91
2023-02-09T11:24:18.824Z,96899.66
2023-02-09T11:26:59.044Z,96893.72
2023-02-09T11:29:32.219Z,96890.75
2023-02-09T11:32:09.720Z,96908.88
2023-02-09T11:34:51.831Z,96895.47
2023-02-09T11:37:25.268Z,96890.72
2023-02-09T11:40:27.826Z,96892.41
2023-02-09T11:43:06.709Z,96892.34
2023-02-09T11:45:39.747Z,96883.81
2023-02-09T11:48:30.407Z,96876.44
2023-02-09T11:51:20.102Z,96877.84
2023-02-09T11:54:14.958Z,96865.63
2023-02-09T11:56:47.439Z,96861.16
2023-02-09T11:59:14.336Z,96859.31
2023-02-09T12:01:56.461Z,96863.03
2023-02-09T12:04:34.525Z,96875.47
2023-02-09T12:07:35.597Z,96866.56
2023-02-09T12:10:24.133Z,96859.84
2023-02-09T12:13:13.416Z,96857.91
2023-02-09T12:16:18.224Z,96848.47
2023-02-09T12:18:46.078Z,96856.72
2023-02-09T12:21:13.582Z,96848.84
2023-02-09T12:23:45.185Z,96828.44
2023-02-09T12:26:12.118Z,96831.75
2023-02-09T12:28:46.004Z,96827.63
2023-02-09T12:31:20.226Z,96819.41
2023-02-09T12:33:47.312Z,96826.44
2023-02-09T12:36:14.024Z,96823.63
2023-02-09T12:38:56.932Z,96812.91
2023-02-09T12:41:34.682Z,96808.78
2023-02-09T12:44:21.781Z,96798.19
2023-02-09T12:46:55.297Z,96788.53
2023-02-09T12:49:33.216Z,96789.47
2023-02-09T12:52:02.807Z,96791.41
2023-02-09T12:54:48.482Z,96782.91
2023-02-09T12:57:15.370Z,96792.28
2023-02-09T12:59:42.113Z,96787.88
2023-02-09T13:02:11.674Z,96787.28
2023-02-09T13:05:18.658Z,96782.50
2023-02-09T13:08:02.470Z,96778.81
2023-02-09T13:10:35.822Z,96751.59
2023-02-09T13:13:11.502Z,96769.97
2023-02-09T13:16:06.311Z,96765.88
2023-02-09T13:18:33.859Z,96763.44
2023-02-09T13:21:15.539Z,96772.16
2023-02-09T13:23:59.130Z,96771.97
2023-02-09T13:26:28.236Z,96760.81
2023-02-09T13:29:21.384Z,96770.91
2023-02-09T13:31:54.115Z,96772.06
2023-02-09T13:34:42.729Z,96765.44
2023-02-09T13:37:18.090Z,96767.47
2023-02-09T13:39:45.334Z,96764.59
2023-02-09T13:42:24.382Z,96777.06
2023-02-09T13:44:53.936Z,96772.50
2023-02-09T13:47:20.825Z,96762.13
2023-02-09T13:50:01.216Z,96770.56
2023-02-09T13:52:38.835Z,96763.44
2023-02-09T13:55:24.505Z,96760.06
2023-02-09T13:58:03.518Z,96756.88
2023-02-09T14:00:37.849Z,96759.38
2023-02-09T14:03:18.371Z,96759.91
2023-02-09T14:06:02.803Z,96756.16
2023-02-09T14:08:32.166Z,96756.78
2023-02-09T14:11:08.106Z,96748.22
2023-02-09T14:13:41.804Z,96761.56
2023-02-09T14:16:09.964Z,96760.00
2023-02-09T14:18:45.829Z,96767.63
2023-02-09T14:21:15.711Z,96777.78
2023-02-09T14:23:48.041Z,96766.53
2023-02-09T14:26:15.192Z,96772.09
2023-02-09T14:28:45.436Z,96771.66
2023-02-09T14:31:24.852Z,96753.91
2023-02-09T14:33:55.237Z,96773.00
2023-02-09T14:36:32.426Z,96772.19
2023-02-09T14:39:12.937Z,96771.41
2023-02-09T14:41:40.853Z,96752.03
2023-02-09T14:44:07.430Z,96772.16
2023-02-09T14:46:55.118Z,96773.66
2023-02-09T14:49:22.751Z,96772.56
2023-02-09T14:51:56.669Z,96764.91
2023-02-09T14:54:26.795Z,96761.63
2023-02-09T14:56:56.442Z,96778.69
2023-02-09T14:59:24.210Z,96786.75
2023-02-09T15:01:54.146Z,96786.53
2023-02-09T15:04:21.383Z,96782.78
2023-02-09T15:06:52.889Z,96790.50
2023-02-09T15:09:29.234Z,96796.72
2023-02-09T15:12:05.097Z,96794.50
2023-02-09T15:14:45.744Z,96796.63
2023-02-09T15:17:25.685Z,96797.31
2023-02-09T15:19:55.886Z,96806.03
2023-02-09T15:22:23.471Z,96799.28
2023-02-09T15:24:54.219Z,96813.50
2023-02-09T15:27:29.468Z,96804.34
2023-02-09T15:29:59.418Z,96803.59
2023-02-09T15:32:28.240Z,96811.09
2023-02-09T15:34:55.194Z,96826.78
2023-02-09T15:37:25.845Z,96831.34
2023-02-09T15:39:59.658Z,96827.53
2023-02-09T15:42:45.076Z,96836.09
2023-02-09T15:45:39.875Z,96843.75
2023-02-09T15:48:08.451Z,96852.28
2023-02-09T15:50:38.926Z,96847.66
2023-02-09T15:53:09.005Z,96855.13
2023-02-09T15:55:37.009Z,96854.78
2023-02-09T15:58:04.971Z,96853.00
2023-02-09T16:00:31.986Z,96856.84
2023-02-09T16:03:01.478Z,96855.88
2023-02-09T16:05:29.825Z,96857.03
2023-02-09T16:07:58.706Z,96846.28
2023-02-09T16:10:27.628Z,96850.28
2023-02-09T16:12:54.941Z,96857.66
2023-02-09T16:15:26.247Z,96868.47
2023-02-09T16:17:53.062Z,96856.00
2023-02-09T16:20:20.505Z,96858.28
2023-02-09T16:22:49.342Z,96865.13
2023-02-09T16:25:25.772Z,96859.94
2023-02-09T16:27:53.982Z,96858.66
2023-02-09T16:30:26.353Z,96868.06
2023-02-09T16:32:53.864Z,96861.09
2023-02-09T16:35:22.138Z,96865.84
2023-02-09T16:37:51.036Z,96857.84
2023-02-09T16:40:31.474Z,96865.28
2023-02-09T16:43:01.049Z,96873.34
2023-02-09T16:45:30.517Z,96868.63
2023-02-09T16:47:59.379Z,96870.47
2023-02-09T16:50:32.931Z,96873.84
2023-02-09T16:53:02.683Z,96870.22
2023-02-09T16:55:34.907Z,96879.91
2023-02-09T16:58:04.365Z,96878.00
2023-02-09T17:00:35.717Z,96872.53
2023-02-09T17:03:16.413Z,96885.34
2023-02-09T17:05:49.113Z,96881.00
2023-02-09T17:08:21.090Z,96879.09
2023-02-09T17:10:50.295Z,96870.94
2023-02-09T17:13:23.332Z,96879.69
2023-02-09T17:15:53.838Z,96870.56
2023-02-09T17:18:23.902Z,96877.03
2023-02-09T17:20:55.245Z,96861.50
2023-02-09T17:23:24.190Z,96875.59
2023-02-09T17:25:54.875Z,96869.38
2023-02-09T17:28:24.439Z,96884.28
2023-02-09T17:30:59.789Z,96877.91
2023-02-09T17:33:29.989Z,96877.25
2023-02-09T17:36:24.229Z,96881.88
2023-02-09T17:38:46.961Z,96880.28
2023-02-09T17:41:34.012Z,96891.59
2023-02-09T17:44:39.171Z,96884.56
2023-02-09T17:47:16.706Z,96893.50
2023-02-09T17:49:44.178Z,96897.09
2023-02-09T17:52:18.820Z,96900.69
2023-02-09T17:54:46.496Z,96897.38
2023-02-09T17:57:17.455Z,96887.72
2023-02-09T17:59:44.355Z,96877.91
2023-02-09T18:02:17.101Z,96883.16
2023-02-09T18:04:44.296Z,96888.13
2023-02-09T18:07:12.723Z,96881.00
2023-02-09T18:09:39.483Z,96882.91
2023-02-09T18:12:24.762Z,96880.94
2023-02-09T18:14:52.077Z,96888.44
2023-02-09T18:17:19.551Z,96889.13
2023-02-09T18:19:46.387Z,96887.66
2023-02-09T18:22:17.221Z,96889.44
2023-02-09T18:24:44.350Z,96884.28
2023-02-09T18:27:15.062Z,96891.09
2023-02-09T18:29:41.789Z,96879.13
2023-02-09T18:32:14.598Z,96857.09
2023-02-09T18:34:41.584Z,96879.94
2023-02-09T18:37:08.590Z,96884.94
2023-02-09T18:39:38.670Z,96870.06
2023-02-09T18:42:07.266Z,96884.91
2023-02-09T18:44:34.464Z,96880.69
2023-02-09T18:47:02.025Z,96881.69
2023-02-09T18:49:29.191Z,96877.16
2023-02-09T18:51:57.093Z,96888.81
2023-02-09T18:54:24.013Z,96889.81
2023-02-09T18:56:52.772Z,96875.41
2023-02-09T18:59:19.852Z,96889.16
2023-02-09T19:01:46.945Z,96889.16
2023-02-09T19:04:14.485Z,96893.03
2023-02-09T19:06:41.334Z,96895.34
2023-02-09T19:09:08.442Z,96898.56
2023-02-09T19:11:35.156Z,96898.56
2023-02-09T19:14:20.909Z,96885.28
2023-02-09T19:16:48.124Z,96892.59
2023-02-09T19:19:16.400Z,96891.75
2023-02-09T19:21:43.401Z,96890.47
2023-02-09T19:24:10.192Z,96891.13
2023-02-09T19:26:37.011Z,96898.25
2023-02-09T19:29:04.091Z,96897.91
2023-02-09T19:31:31.017Z,96896.31
2023-02-09T19:33:58.094Z,96900.03
2023-02-09T19:36:28.159Z,96883.19
2023-02-09T19:38:56.341Z,96883.19
2023-02-09T19:41:25.709Z,96893.38
2023-02-09T19:43:57.422Z,96890.47
2023-02-09T19:46:25.204Z,96897.44
2023-02-09T19:48:53.940Z,96895.34
2023-02-09T19:51:21.368Z,96895.66
2023-02-09T19:53:48.804Z,96896.94
2023-02-09T19:56:17.425Z,96890.94
2023-02-09T19:58:45.079Z,96880.41
2023-02-09T20:01:12.885Z,96900.78
2023-02-09T20:03:40.036Z,96900.19
2023-02-09T20:06:12.944Z,96904.03
2023-02-09T20:08:40.643Z,96909.25
2023-02-09T20:11:09.590Z,96888.81
2023-02-09T20:13:36.788Z,96914.72
2023-02-09T20:16:09.426Z,96906.66
2023-02-09T20:18:41.097Z,96902.44
2023-02-09T20:21:08.776Z,96896.94
2023-02-09T20:23:37.113Z,96916.50
2023-02-09T20:26:22.970Z,96913.44
2023-02-09T20:28:50.493Z,96914.88
2023-02-09T20:31:22.066Z,96908.28
2023-02-09T20:33:49.305Z,96904.34
2023-02-09T20:36:16.988Z,96901.06
2023-02-09T20:38:43.807Z,96917.94
2023-02-09T20:41:16.470Z,96904.84
2023-02-09T20:44:02.306Z,96902.72
2023-02-09T20:46:51.427Z,96913.06
2023-02-09T20:49:19.345Z,96907.06
2023-02-09T20:51:46.317Z,96906.09
2023-02-09T20:54:15.658Z,96899.50
2023-02-09T20:56:43.126Z,96900.78
2023-02-09T20:59:12.198Z,96897.22
2023-02-09T21:01:39.635Z,96893.88
2023-02-09T21:04:07.467Z,96900.41
2023-02-09T21:06:37.098Z,96901.06
2023-02-09T21:09:06.447Z,96900.13
2023-02-09T21:11:33.876Z,96901.06
2023-02-09T21:14:01.642Z,96878.56
2023-02-09T21:16:29.067Z,96862.03
2023-02-09T21:18:55.861Z,96892.66
2023-02-09T21:21:23.129Z,96888.47
2023-02-09T21:23:49.970Z,96875.06
2023-02-09T21:26:19.651Z,96874.16
2023-02-09T21:28:48.629Z,96869.00
2023-02-09T21:31:22.113Z,96896.03
2023-02-09T21:33:49.068Z,96901.38
2023-02-09T21:36:15.890Z,96889.38
2023-02-09T21:38:42.708Z,96884.63
2023-02-09T21:41:36.057Z,96882.06
2023-02-09T21:44:03.157Z,96894.66
2023-02-09T21:46:30.154Z,96900.66
2023-02-09T21:48:57.011Z,96904.72
2023-02-09T21:51:24.284Z,96887.66
2023-02-09T21:53:51.418Z,96900.16
2023-02-09T21:56:18.493Z,96894.47
2023-02-09T21:58:45.387Z,96888.22
2023-02-09T22:01:12.229Z,96897.88
2023-02-09T22:03:40.431Z,96903.59
2023-02-09T22:06:07.357Z,96902.13
2023-02-09T22:08:34.324Z,96895.31
2023-02-09T22:11:02.946Z,96884.75
2023-02-09T22:13:30.907Z,96877.22
2023-02-09T22:15:57.974Z,96907.31
2023-02-09T22:18:24.995Z,96907.31
2023-02-09T22:20:52.032Z,96908.63
2023-02-09T22:23:19.922Z,96914.66
2023-02-09T22:25:46.746Z,96906.25
2023-02-09T22:28:13.981Z,96920.16
2023-02-09T22:30:41.092Z,96909.50
2023-02-09T22:33:08.017Z,96906.88
2023-02-09T22:35:34.795Z,96900.41
2023-02-09T22:38:01.528Z,96912.25
2023-02-09T22:40:28.521Z,96892.31
2023-02-09T22:42:55.338Z,96899.06
2023-02-09T22:45:22.138Z,96900.41
2023-02-09T22:47:48.893Z,96902.13
2023-02-09T22:50:15.900Z,96890.97
2023-02-09T22:52:42.648Z,96903.59
2023-02-09T22:55:09.582Z,96894.22
2023-02-09T22:57:36.331Z,96918.84
2023-02-09T23:00:07.577Z,96907.81
2023-02-09T23:02:34.352Z,96907.41
2023-02-09T23:05:01.083Z,96920.25
2023-02-09T23:07:28.204Z,96920.75
2023-02-09T23:09:54.878Z,96902.81
2023-02-09T23:12:21.747Z,96892.97
2023-02-09T23:14:48.617Z,96914.97
2023-02-09T23:17:15.337Z,96907.78
2023-02-09T23:19:42.050Z,96923.06
2023-02-09T23:22:08.868Z,96922.56
2023-02-09T23:24:35.718Z,96919.13
2023-02-09T23:27:02.381Z,96921.22
2023-02-09T23:29:30.787Z,96920.25
2023-02-09T23:31:58.715Z,96915.00
2023-02-09T23:34:25.715Z,96917.19
2023-02-09T23:36:52.681Z,96906.44
2023-02-09T23:39:22.362Z,96924.28
2023-02-09T23:41:49.162Z,96927.69
2023-02-09T23:44:16.095Z,96917.44
2023-02-09T23:46:43.013Z,96935.19
2023-02-09T23:49:11.548Z,96923.13
2023-02-09T23:51:38.315Z,96916.84
2023-02-09T23:54:06.638Z,96919.94
2023-02-09T23:56:37.236Z,96919.34
2023-02-09T23:59:06.896Z,96906.22
